createdAt,value
2023-04-02T00:00:16.389Z,-2.70
2023-04-02T00:03:14.110Z,-2.60
2023-04-02T00:06:40.770Z,-2.70
2023-04-02T00:09:38.799Z,-2.70
2023-04-02T00:12:37.339Z,-2.90
2023-04-02T00:15:35.693Z,-3.00
2023-04-02T00:18:37.709Z,-3.00
2023-04-02T00:21:39.894Z,-3.10
2023-04-02T00:24:40.434Z,-3.10
2023-04-02T00:27:38.109Z,-3.10
2023-04-02T00:30:37.312Z,-3.10
2023-04-02T00:33:35.808Z,-3.20
2023-04-02T00:36:35.321Z,-3.20
2023-04-02T00:39:42.519Z,-3.20
2023-04-02T00:42:41.872Z,-3.10
2023-04-02T00:45:39.838Z,-3.20
2023-04-02T00:48:46.366Z,-3.00
2023-04-02T00:51:54.110Z,-3.00
2023-04-02T00:54:59.103Z,-3.00
2023-04-02T00:57:58.412Z,-3.00
2023-04-02T01:00:57.292Z,-3.00
2023-04-02T01:03:58.661Z,-3.00
2023-04-02T01:06:57.261Z,-2.90
2023-04-02T01:10:18.867Z,-3.10
2023-04-02T01:13:28.376Z,-3.00
2023-04-02T01:16:50.828Z,-2.80
2023-04-02T01:20:14.763Z,-2.90
2023-04-02T01:23:31.466Z,-2.80
2023-04-02T01:26:45.386Z,-2.90
2023-04-02T01:29:59.247Z,-3.00
2023-04-02T01:32:57.731Z,-3.10
2023-04-02T01:36:18.216Z,-3.00
2023-04-02T01:39:41.993Z,-3.00
2023-04-02T01:42:52.788Z,-2.90
2023-04-02T01:45:51.215Z,-3.00
2023-04-02T01:48:49.040Z,-3.10
2023-04-02T01:51:53.586Z,-3.00
2023-04-02T01:54:53.268Z,-3.00
2023-04-02T01:57:54.518Z,-3.10
2023-04-02T02:00:58.482Z,-3.10
2023-04-02T02:03:56.714Z,-3.10
2023-04-02T02:06:54.729Z,-3.10
2023-04-02T02:09:53.040Z,-3.10
2023-04-02T02:12:51.240Z,-3.00
2023-04-02T02:15:49.284Z,-2.90
2023-04-02T02:18:51.852Z,-2.80
2023-04-02T02:21:54.062Z,-2.80
2023-04-02T02:24:51.894Z,-2.90
2023-04-02T02:28:20.249Z,-2.90
2023-04-02T02:31:29.643Z,-2.70
2023-04-02T02:34:36.840Z,-2.70
2023-04-02T02:37:42.789Z,-2.60
2023-04-02T02:40:46.104Z,-2.60
2023-04-02T02:43:50.983Z,-2.50
2023-04-02T02:46:59.382Z,-2.40
2023-04-02T02:50:02.366Z,-2.30
2023-04-02T02:53:04.961Z,-2.20
2023-04-02T02:56:03.073Z,-2.10
2023-04-02T02:59:02.403Z,-2.00
2023-04-02T03:02:01.694Z,-2.00
2023-04-02T03:04:59.921Z,-1.80
2023-04-02T03:07:58.994Z,-1.60
2023-04-02T03:11:07.522Z,-1.40
2023-04-02T03:14:19.075Z,-1.20
2023-04-02T03:17:27.435Z,-1.00
2023-04-02T03:20:44.458Z,-0.80
2023-04-02T03:23:51.955Z,-0.60
2023-04-02T03:26:56.008Z,-0.50
2023-04-02T03:30:24.770Z,-0.30
2023-04-02T03:33:28.655Z,-0.20
2023-04-02T03:36:35.214Z,0.00
2023-04-02T03:39:42.032Z,0.20
2023-04-02T03:42:51.878Z,0.30
2023-04-02T03:45:53.918Z,0.40
2023-04-02T03:48:56.700Z,0.40
2023-04-02T03:52:03.371Z,0.70
2023-04-02T03:55:03.499Z,0.80
2023-04-02T03:58:23.294Z,1.00
2023-04-02T04:01:30.394Z,1.20
2023-04-02T04:04:30.974Z,1.40
2023-04-02T04:07:34.171Z,1.50
2023-04-02T04:10:32.585Z,1.50
2023-04-02T04:13:39.508Z,1.80
2023-04-02T04:17:07.832Z,1.90
2023-04-02T04:20:24.631Z,2.00
2023-04-02T04:23:44.772Z,2.00
2023-04-02T04:26:55.835Z,2.00
2023-04-02T04:30:23.558Z,2.20
2023-04-02T04:33:42.435Z,2.30
2023-04-02T04:36:48.634Z,2.40
2023-04-02T04:39:51.854Z,2.50
2023-04-02T04:42:52.473Z,2.70
2023-04-02T04:46:08.699Z,2.70
2023-04-02T04:49:18.269Z,2.70
2023-04-02T04:52:25.043Z,2.90
2023-04-02T04:55:35.689Z,2.90
2023-04-02T04:58:50.645Z,2.90
2023-04-02T05:01:58.689Z,2.90
2023-04-02T05:04:57.487Z,2.90
2023-04-02T05:08:06.720Z,2.90
2023-04-02T05:11:15.740Z,2.90
2023-04-02T05:14:38.495Z,2.90
2023-04-02T05:17:39.294Z,3.00
2023-04-02T05:20:48.189Z,3.00
2023-04-02T05:23:52.591Z,2.90
2023-04-02T05:26:52.705Z,3.20
2023-04-02T05:30:04.281Z,3.30
2023-04-02T05:33:08.554Z,3.30
2023-04-02T05:36:28.598Z,3.30
2023-04-02T05:39:28.082Z,3.40
2023-04-02T05:42:32.601Z,3.40
2023-04-02T05:45:37.875Z,3.50
2023-04-02T05:48:43.911Z,3.60
2023-04-02T05:51:49.616Z,3.50
2023-04-02T05:55:01.074Z,3.50
2023-04-02T05:58:29.522Z,3.50
2023-04-02T06:01:29.930Z,3.50
2023-04-02T06:04:46.930Z,3.60
2023-04-02T06:08:00.594Z,3.70
2023-04-02T06:11:24.101Z,3.70
2023-04-02T06:14:21.997Z,3.80
2023-04-02T06:17:21.800Z,3.90
2023-04-02T06:20:21.786Z,3.70
2023-04-02T06:23:19.652Z,3.80
2023-04-02T06:26:48.220Z,3.90
2023-04-02T06:29:49.128Z,3.90
2023-04-02T06:32:48.205Z,4.10
2023-04-02T06:35:49.353Z,4.30
2023-04-02T06:38:49.837Z,4.30
2023-04-02T06:41:48.206Z,4.30
2023-04-02T06:44:46.467Z,4.50
2023-04-02T06:47:47.660Z,4.70
2023-04-02T06:50:50.997Z,4.60
2023-04-02T06:53:49.137Z,4.70
2023-04-02T06:56:48.152Z,4.90
2023-04-02T06:59:46.540Z,4.90
2023-04-02T07:02:44.887Z,5.00
2023-04-02T07:05:43.026Z,5.10
2023-04-02T07:08:41.234Z,5.00
2023-04-02T07:11:39.179Z,5.20
2023-04-02T07:14:37.133Z,5.30
2023-04-02T07:17:34.871Z,5.20
2023-04-02T07:20:38.098Z,5.20
2023-04-02T07:23:38.192Z,5.10
2023-04-02T07:26:36.077Z,5.20
2023-04-02T07:29:33.835Z,5.40
2023-04-02T07:32:32.052Z,5.40
2023-04-02T07:35:30.302Z,5.30
2023-04-02T07:38:28.260Z,5.60
2023-04-02T07:41:27.168Z,5.70
2023-04-02T07:44:25.436Z,5.70
2023-04-02T07:47:23.271Z,5.80
2023-04-02T07:50:21.118Z,6.10
2023-04-02T07:53:35.432Z,6.20
2023-04-02T07:56:33.142Z,6.30
2023-04-02T07:59:31.357Z,6.40
2023-04-02T08:02:29.216Z,6.40
2023-04-02T08:05:28.394Z,6.40
2023-04-02T08:08:27.202Z,6.40
2023-04-02T08:11:25.558Z,6.30
2023-04-02T08:14:23.415Z,6.30
2023-04-02T08:17:21.866Z,6.40
2023-04-02T08:20:22.613Z,6.50
2023-04-02T08:23:21.388Z,6.40
2023-04-02T08:26:19.843Z,6.40
2023-04-02T08:29:17.959Z,6.30
2023-04-02T08:32:16.907Z,6.50
2023-04-02T08:35:18.277Z,6.50
2023-04-02T08:38:18.635Z,6.50
2023-04-02T08:41:31.745Z,6.40
2023-04-02T08:44:37.166Z,6.50
2023-04-02T08:47:41.826Z,6.70
2023-04-02T08:50:42.806Z,6.90
2023-04-02T08:53:42.825Z,6.90
2023-04-02T08:56:50.295Z,7.00
2023-04-02T08:59:48.783Z,7.10
2023-04-02T09:02:56.815Z,7.20
2023-04-02T09:05:55.546Z,7.10
2023-04-02T09:08:54.891Z,7.00
2023-04-02T09:12:04.715Z,7.10
2023-04-02T09:15:05.662Z,7.30
2023-04-02T09:18:17.155Z,7.30
2023-04-02T09:21:39.565Z,7.30
2023-04-02T09:24:38.480Z,7.00
2023-04-02T09:27:37.349Z,6.60
2023-04-02T09:31:07.127Z,6.80
2023-04-02T09:34:33.225Z,7.10
2023-04-02T09:37:30.979Z,7.20
2023-04-02T09:40:33.206Z,7.10
2023-04-02T09:43:36.400Z,7.10
2023-04-02T09:46:35.098Z,7.40
2023-04-02T09:49:38.699Z,7.50
2023-04-02T09:52:36.985Z,7.60
2023-04-02T09:55:35.268Z,7.50
2023-04-02T09:58:33.249Z,7.60
2023-04-02T10:01:40.385Z,7.10
2023-04-02T10:04:47.831Z,7.40
2023-04-02T10:07:49.482Z,7.80
2023-04-02T10:10:53.811Z,7.70
2023-04-02T10:14:26.648Z,7.80
2023-04-02T10:17:32.843Z,7.70
2023-04-02T10:20:36.326Z,7.80
2023-04-02T10:23:40.062Z,7.60
2023-04-02T10:27:03.420Z,7.80
2023-04-02T10:30:16.196Z,8.10
2023-04-02T10:33:29.064Z,8.10
2023-04-02T10:36:39.422Z,7.90
2023-04-02T10:39:48.151Z,7.70
2023-04-02T10:42:56.994Z,7.50
2023-04-02T10:46:13.290Z,7.50
2023-04-02T10:49:22.884Z,7.20
2023-04-02T10:52:56.618Z,7.40
2023-04-02T10:56:04.184Z,7.60
2023-04-02T10:59:28.277Z,8.00
2023-04-02T11:02:30.438Z,8.20
2023-04-02T11:05:44.584Z,8.50
2023-04-02T11:08:49.077Z,8.70
2023-04-02T11:11:52.527Z,8.80
2023-04-02T11:14:51.918Z,8.90
2023-04-02T11:17:50.506Z,8.20
2023-04-02T11:20:51.450Z,8.20
2023-04-02T11:24:06.413Z,8.20
2023-04-02T11:27:12.567Z,8.10
2023-04-02T11:30:27.848Z,7.70
2023-04-02T11:33:36.560Z,7.60
2023-04-02T11:36:51.704Z,7.50
2023-04-02T11:40:00.367Z,7.50
2023-04-02T11:43:36.555Z,7.50
2023-04-02T11:46:41.558Z,7.50
2023-04-02T11:49:41.852Z,7.40
2023-04-02T11:53:06.193Z,7.30
2023-04-02T11:56:50.393Z,7.20
2023-04-02T12:00:09.505Z,7.20
2023-04-02T12:03:45.002Z,7.30
2023-04-02T12:06:48.661Z,7.30
2023-04-02T12:09:48.877Z,7.20
2023-04-02T12:12:47.787Z,7.10
2023-04-02T12:15:50.240Z,7.10
2023-04-02T12:18:56.724Z,7.00
2023-04-02T12:21:54.915Z,6.80
2023-04-02T12:24:55.489Z,6.80
2023-04-02T12:28:11.458Z,6.80
2023-04-02T12:31:09.596Z,6.80
2023-04-02T12:34:19.491Z,6.80
2023-04-02T12:37:29.442Z,6.70
2023-04-02T12:40:27.976Z,6.60
2023-04-02T12:43:30.851Z,6.50
2023-04-02T12:46:30.586Z,6.40
2023-04-02T12:49:45.203Z,6.50
2023-04-02T12:52:49.761Z,6.40
2023-04-02T12:55:49.628Z,6.40
2023-04-02T12:58:57.774Z,6.30
2023-04-02T13:02:03.842Z,6.20
2023-04-02T13:05:03.032Z,6.10
2023-04-02T13:08:01.885Z,6.00
2023-04-02T13:11:05.440Z,6.00
2023-04-02T13:14:06.563Z,5.90
2023-04-02T13:17:04.419Z,5.90
2023-04-02T13:20:58.048Z,5.90
2023-04-02T13:23:56.153Z,5.80
2023-04-02T13:26:59.358Z,5.70
2023-04-02T13:29:57.158Z,5.60
2023-04-02T13:32:55.458Z,5.60
2023-04-02T13:35:53.674Z,5.50
2023-04-02T13:38:51.554Z,5.50
2023-04-02T13:42:12.291Z,5.40
2023-04-02T13:45:30.325Z,5.40
2023-04-02T13:48:29.457Z,5.30
2023-04-02T13:52:06.354Z,5.20
2023-04-02T13:55:05.109Z,5.10
2023-04-02T13:58:04.196Z,5.00
2023-04-02T14:01:02.616Z,4.90
2023-04-02T14:04:01.040Z,4.90
2023-04-02T14:07:29.898Z,4.80
2023-04-02T14:10:59.225Z,4.70
2023-04-02T14:14:34.279Z,4.70
2023-04-02T14:18:10.709Z,4.60
2023-04-02T14:21:15.701Z,4.50
2023-04-02T14:24:37.350Z,4.40
2023-04-02T14:27:49.864Z,4.30
2023-04-02T14:31:16.555Z,4.30
2023-04-02T14:34:29.692Z,4.10
2023-04-02T14:37:51.860Z,4.10
2023-04-02T14:40:56.529Z,4.10
2023-04-02T14:44:08.212Z,4.10
2023-04-02T14:47:37.475Z,3.90
2023-04-02T14:50:43.744Z,3.90
2023-04-02T14:54:10.538Z,3.80
2023-04-02T14:57:24.871Z,3.70
2023-04-02T15:00:28.528Z,3.70
2023-04-02T15:03:35.837Z,3.60
2023-04-02T15:06:45.410Z,3.60
2023-04-02T15:10:02.679Z,3.60
2023-04-02T15:13:05.940Z,3.50
2023-04-02T15:16:17.071Z,3.50
2023-04-02T15:19:20.425Z,3.40
2023-04-02T15:22:33.815Z,3.40
2023-04-02T15:25:48.666Z,3.20
2023-04-02T15:29:33.214Z,3.20
2023-04-02T15:32:37.172Z,3.10
2023-04-02T15:35:56.950Z,3.10
2023-04-02T15:39:22.959Z,3.00
2023-04-02T15:42:21.124Z,3.00
2023-04-02T15:45:58.441Z,3.00
2023-04-02T15:49:35.892Z,2.90
2023-04-02T15:52:49.870Z,2.90
2023-04-02T15:55:57.742Z,2.90
2023-04-02T15:59:22.054Z,2.90
2023-04-02T16:02:45.318Z,2.80
2023-04-02T16:05:46.690Z,2.60
2023-04-02T16:08:59.223Z,2.40
2023-04-02T16:12:12.138Z,2.30
2023-04-02T16:15:19.592Z,2.30
2023-04-02T16:18:39.299Z,2.40
2023-04-02T16:21:51.725Z,2.30
2023-04-02T16:24:57.892Z,2.30
2023-04-02T16:28:23.494Z,2.30
2023-04-02T16:31:50.783Z,2.30
2023-04-02T16:38:36.181Z,2.30
2023-04-02T16:41:49.146Z,2.30
2023-04-02T16:44:54.834Z,2.20
2023-04-02T16:48:22.221Z,2.10
2023-04-02T16:51:27.264Z,2.10
2023-04-02T16:54:49.830Z,2.10
2023-04-02T16:57:53.706Z,2.10
2023-04-02T17:00:59.338Z,2.10
2023-04-02T17:04:20.134Z,2.20
2023-04-02T17:07:35.095Z,2.10
2023-04-02T17:10:45.673Z,2.10
2023-04-02T17:13:45.775Z,2.10
2023-04-02T17:16:46.578Z,2.00
2023-04-02T17:19:45.944Z,2.00
2023-04-02T17:22:44.247Z,2.00
2023-04-02T17:25:57.269Z,2.00
2023-04-02T17:28:55.776Z,1.90
2023-04-02T17:32:00.871Z,1.90
2023-04-02T17:35:44.006Z,1.90
2023-04-02T17:38:49.898Z,1.90
2023-04-02T17:41:55.508Z,1.80
2023-04-02T17:45:02.615Z,1.90
2023-04-02T17:48:26.629Z,1.90
2023-04-02T17:51:31.146Z,1.90
2023-04-02T17:55:05.627Z,1.90
2023-04-02T17:58:33.283Z,1.90
2023-04-02T18:01:52.329Z,1.90
2023-04-02T18:04:59.262Z,1.80
2023-04-02T18:08:26.709Z,1.80
2023-04-02T18:12:00.434Z,1.80
2023-04-02T18:15:33.048Z,1.70
2023-04-02T18:19:06.894Z,1.70
2023-04-02T18:22:31.923Z,1.60
2023-04-02T18:25:44.582Z,1.60
2023-04-02T18:29:10.358Z,1.40
2023-04-02T18:32:42.222Z,1.30
2023-04-02T18:36:08.143Z,1.20
2023-04-02T18:39:24.268Z,1.20
2023-04-02T18:42:37.220Z,1.20
2023-04-02T18:45:46.870Z,1.10
2023-04-02T18:48:54.391Z,1.10
2023-04-02T18:52:03.172Z,1.00
2023-04-02T18:55:28.739Z,1.00
2023-04-02T18:58:41.726Z,1.00
2023-04-02T19:01:44.253Z,0.90
2023-04-02T19:04:52.608Z,0.90
2023-04-02T19:07:55.245Z,0.80
2023-04-02T19:11:00.603Z,0.80
2023-04-02T19:14:03.780Z,0.70
2023-04-02T19:17:24.610Z,0.70
2023-04-02T19:20:57.631Z,0.70
2023-04-02T19:23:58.240Z,0.70
2023-04-02T19:27:05.802Z,0.70
2023-04-02T19:30:39.719Z,0.70
2023-04-02T19:33:42.904Z,0.50
2023-04-02T19:36:55.779Z,0.50
2023-04-02T19:40:31.953Z,0.50
2023-04-02T19:43:30.375Z,0.40
2023-04-02T19:46:28.850Z,0.40
2023-04-02T19:49:36.075Z,0.40
2023-04-02T19:52:33.933Z,0.40
2023-04-02T19:55:31.770Z,0.40
2023-04-02T19:58:35.228Z,0.40
2023-04-02T20:01:33.010Z,0.30
2023-04-02T20:04:31.037Z,0.40
2023-04-02T20:07:31.124Z,0.30
2023-04-02T20:10:28.908Z,0.30
2023-04-02T20:13:26.909Z,0.30
2023-04-02T20:16:25.311Z,0.10
2023-04-02T20:19:23.327Z,0.10
2023-04-02T20:22:21.665Z,0.10
2023-04-02T20:25:19.370Z,0.10
2023-04-02T20:28:17.543Z,0.10
2023-04-02T20:31:17.966Z,0.10
2023-04-02T20:34:16.532Z,0.00
2023-04-02T20:37:14.576Z,0.00
2023-04-02T20:40:12.441Z,-0.10
2023-04-02T20:43:11.168Z,-0.10
2023-04-02T20:46:10.986Z,-0.20
2023-04-02T20:49:10.063Z,-0.20
2023-04-02T20:52:08.175Z,-0.30
2023-04-02T20:55:06.973Z,-0.30
2023-04-02T20:58:04.663Z,-0.40
2023-04-02T21:01:17.677Z,-0.40
2023-04-02T21:04:15.988Z,-0.40
2023-04-02T21:07:13.845Z,-0.40
2023-04-02T21:10:11.869Z,-0.50
2023-04-02T21:13:09.708Z,-0.50
2023-04-02T21:16:17.934Z,-0.50
2023-04-02T21:19:16.071Z,-0.50
2023-04-02T21:22:13.942Z,-0.50
2023-04-02T21:25:12.600Z,-0.60
2023-04-02T21:28:10.308Z,-0.70
2023-04-02T21:31:17.119Z,-0.70
2023-04-02T21:34:17.218Z,-0.70
2023-04-02T21:37:15.088Z,-0.80
2023-04-02T21:40:13.112Z,-0.90
2023-04-02T21:43:10.990Z,-0.80
2023-04-02T21:46:09.079Z,-1.00
2023-04-02T21:49:10.820Z,-1.10
2023-04-02T21:52:08.891Z,-1.10
2023-04-02T21:55:06.840Z,-1.00
2023-04-02T21:58:04.647Z,-1.10
2023-04-02T22:01:03.419Z,-1.20
2023-04-02T22:04:04.268Z,-1.30
2023-04-02T22:07:02.513Z,-1.30
2023-04-02T22:10:00.391Z,-1.30
2023-04-02T22:12:58.099Z,-1.30
2023-04-02T22:16:05.684Z,-1.30
2023-04-02T22:19:07.709Z,-1.30
2023-04-02T22:22:05.582Z,-1.40
2023-04-02T22:25:04.037Z,-1.40
2023-04-02T22:28:01.880Z,-1.40
2023-04-02T22:31:07.312Z,-1.40
2023-04-02T22:34:07.133Z,-1.50
2023-04-02T22:37:04.815Z,-1.50
2023-04-02T22:40:02.840Z,-1.50
2023-04-02T22:43:00.886Z,-1.50
2023-04-02T22:45:58.710Z,-1.60
2023-04-02T22:48:57.163Z,-1.60
2023-04-02T22:51:54.895Z,-1.60
2023-04-02T22:54:52.922Z,-1.60
2023-04-02T22:57:50.658Z,-1.60
2023-04-02T23:00:49.695Z,-1.60
2023-04-02T23:03:47.730Z,-1.60
2023-04-02T23:06:45.426Z,-1.60
2023-04-02T23:09:43.257Z,-1.60
2023-04-02T23:12:41.379Z,-1.40
2023-04-02T23:15:39.077Z,-1.30
2023-04-02T23:18:37.669Z,-1.30
2023-04-02T23:21:35.452Z,-1.30
2023-04-02T23:24:33.263Z,-1.10
2023-04-02T23:27:31.903Z,-0.90
2023-04-02T23:30:29.771Z,-0.80
2023-04-02T23:33:27.800Z,-0.70
2023-04-02T23:36:27.334Z,-0.80
2023-04-02T23:39:25.184Z,-0.70
2023-04-02T23:42:23.014Z,-0.70
2023-04-02T23:45:21.136Z,-0.70
2023-04-02T23:48:19.084Z,-0.60
2023-04-02T23:51:17.468Z,-0.50
2023-04-02T23:54:16.109Z,-0.50
2023-04-02T23:57:13.959Z,-0.40
